Greeley, Colorado
Current Conditions -  °F | °C
As of 7:55 PM on Wednesday 26 Nov 2014 (Local Time) from KGXY Reporting Station
Clear Clear  
Wind Chill: 19°   Ceiling: Unl
Heat Index: 25°   Visibility: 10mi
Dew Point: 18°   Wind: 5mph
Humidity: 74%   Direction: 40°NE
Pressure: 30.28"   Gusts: NA
Location:  40.42°N, 104.69°W
Report Text: KGXY 270255Z AUTO 04004KT 10SM CLR M04/M08 A3028 RMK AO1 52014
Loading
Personal Weather Stations






























Interactive Weather Map New forecast layout! Learn more

10-Day Weather Forecast

Advertisements
Track Severe Weather on mobile